createdAt,value
2022-12-06T00:02:04.282Z,101085.91
2022-12-06T00:04:35.196Z,101083.21
2022-12-06T00:07:06.706Z,101079.74
2022-12-06T00:09:37.202Z,101080.22
2022-12-06T00:12:08.524Z,101080.43
2022-12-06T00:14:39.889Z,101076.30
2022-12-06T00:17:10.865Z,101077.21
2022-12-06T00:19:41.385Z,101076.66
2022-12-06T00:22:12.697Z,101073.65
2022-12-06T00:24:43.568Z,101066.56
2022-12-06T00:27:14.447Z,101069.92
2022-12-06T00:29:45.247Z,101068.96
2022-12-06T00:32:19.514Z,101066.20
2022-12-06T00:34:50.639Z,101063.84
2022-12-06T00:37:21.521Z,101068.15
2022-12-06T00:39:52.863Z,101068.32
2022-12-06T00:42:23.295Z,101066.59
2022-12-06T00:44:54.331Z,101064.74
2022-12-06T00:47:24.950Z,101059.77
2022-12-06T00:49:56.182Z,101064.66
2022-12-06T00:52:27.645Z,101059.45
2022-12-06T00:54:58.985Z,101062.65
2022-12-06T00:57:30.468Z,101065.06
2022-12-06T01:00:01.234Z,101067.36
2022-12-06T01:02:32.317Z,101066.22
2022-12-06T01:05:03.028Z,101068.98
2022-12-06T01:07:34.327Z,101068.27
2022-12-06T01:10:06.614Z,101067.21
2022-12-06T01:12:37.289Z,101067.70
2022-12-06T01:15:09.713Z,101065.45
2022-12-06T01:17:40.359Z,101060.36
2022-12-06T01:20:12.372Z,101055.49
2022-12-06T01:22:43.280Z,101054.16
2022-12-06T01:25:13.958Z,101053.71
2022-12-06T01:27:45.145Z,101055.28
2022-12-06T01:30:16.412Z,101054.71
2022-12-06T01:32:46.783Z,101050.76
2022-12-06T01:35:17.808Z,101046.41
2022-12-06T01:37:48.231Z,101046.11
2022-12-06T01:40:19.166Z,101047.47
2022-12-06T01:42:49.475Z,101046.01
2022-12-06T01:45:20.532Z,101045.46
2022-12-06T01:47:51.120Z,101043.00
2022-12-06T01:50:25.625Z,101043.31
2022-12-06T01:53:00.991Z,101039.45
2022-12-06T01:55:36.052Z,101041.31
2022-12-06T01:58:12.215Z,101042.92
2022-12-06T02:00:42.691Z,101036.33
2022-12-06T02:03:19.139Z,101037.97
2022-12-06T02:05:50.877Z,101034.50
2022-12-06T02:08:23.207Z,101029.80
2022-12-06T02:10:55.037Z,101032.36
2022-12-06T02:13:27.096Z,101028.81
2022-12-06T02:16:07.238Z,101025.28
2022-12-06T02:18:46.420Z,101019.27
2022-12-06T02:21:25.932Z,101015.39
2022-12-06T02:24:37.491Z,101010.13
2022-12-06T02:27:25.710Z,101002.48
2022-12-06T02:30:10.862Z,101004.02
2022-12-06T02:32:54.454Z,101001.39
2022-12-06T02:35:34.791Z,101002.73
2022-12-06T02:38:13.184Z,101000.56
2022-12-06T02:40:48.136Z,100999.34
2022-12-06T02:43:22.929Z,100996.55
2022-12-06T02:45:58.354Z,100999.21
2022-12-06T02:48:29.270Z,100998.70
2022-12-06T02:51:03.418Z,100995.92
2022-12-06T02:53:38.226Z,100994.76
2022-12-06T02:56:10.271Z,100998.16
2022-12-06T02:58:40.761Z,101000.40
2022-12-06T03:01:15.271Z,100991.46
2022-12-06T03:04:00.869Z,100989.70
2022-12-06T03:06:42.378Z,100990.84
2022-12-06T03:09:26.211Z,100993.30
2022-12-06T03:12:05.749Z,100995.58
2022-12-06T03:14:43.133Z,100997.21
2022-12-06T03:17:23.729Z,100992.60
2022-12-06T03:20:00.600Z,100988.33
2022-12-06T03:22:39.579Z,100994.70
2022-12-06T03:25:12.052Z,100989.42
2022-12-06T03:27:44.391Z,100984.88
2022-12-06T03:30:17.013Z,100984.17
2022-12-06T03:32:51.149Z,100978.02
2022-12-06T03:35:25.240Z,100980.95
2022-12-06T03:38:04.205Z,100984.67
2022-12-06T03:40:38.113Z,100989.71
2022-12-06T03:43:08.882Z,100990.42
2022-12-06T03:45:44.441Z,100990.91
2022-12-06T03:48:19.718Z,100985.46
2022-12-06T03:50:58.578Z,100985.37
2022-12-06T03:53:29.432Z,100983.70
2022-12-06T03:56:00.718Z,100981.52
2022-12-06T03:58:31.317Z,100977.84
2022-12-06T04:01:04.931Z,100974.75
2022-12-06T04:03:36.084Z,100966.58
2022-12-06T04:06:08.344Z,100970.35
2022-12-06T04:08:39.321Z,100972.30
2022-12-06T04:11:09.675Z,100967.93
2022-12-06T04:13:40.965Z,100967.60
2022-12-06T04:16:25.834Z,100966.45
2022-12-06T04:18:56.977Z,100967.21
2022-12-06T04:21:45.336Z,100961.27
2022-12-06T04:24:16.453Z,100963.23
2022-12-06T04:26:46.811Z,100959.38
2022-12-06T04:29:35.013Z,100955.46
2022-12-06T04:32:23.744Z,100953.83
2022-12-06T04:35:12.130Z,100953.89
2022-12-06T04:38:00.501Z,100956.23
2022-12-06T04:40:31.438Z,100952.59
2022-12-06T04:43:19.516Z,100949.44
2022-12-06T04:45:49.876Z,100944.23
2022-12-06T04:48:20.625Z,100941.52
2022-12-06T04:50:51.884Z,100946.09
2022-12-06T04:53:22.205Z,100943.56
2022-12-06T04:55:52.935Z,100944.98
2022-12-06T04:58:23.324Z,100939.52
2022-12-06T05:00:55.106Z,100936.29
2022-12-06T05:03:25.653Z,100935.06
2022-12-06T05:05:56.769Z,100936.05
2022-12-06T05:08:27.216Z,100934.55
2022-12-06T05:10:57.761Z,100936.64
2022-12-06T05:13:28.486Z,100934.30
2022-12-06T05:16:00.570Z,100932.23
2022-12-06T05:18:32.188Z,100931.15
2022-12-06T05:21:08.124Z,100935.00
2022-12-06T05:23:38.673Z,100929.21
2022-12-06T05:26:12.876Z,100932.30
2022-12-06T05:28:49.016Z,100928.86
2022-12-06T05:31:20.902Z,100928.94
2022-12-06T05:33:51.967Z,100927.30
2022-12-06T05:36:24.373Z,100923.61
2022-12-06T05:38:55.596Z,100921.28
2022-12-06T05:41:26.276Z,100925.23
2022-12-06T05:43:57.264Z,100922.67
2022-12-06T05:46:28.306Z,100922.00
2022-12-06T05:48:58.951Z,100920.88
2022-12-06T05:51:29.329Z,100918.75
2022-12-06T05:54:02.896Z,100912.66
2022-12-06T05:56:33.626Z,100912.32
2022-12-06T05:59:04.372Z,100909.80
2022-12-06T06:01:35.192Z,100908.63
2022-12-06T06:04:05.959Z,100904.74
2022-12-06T06:06:36.873Z,100905.34
2022-12-06T06:09:07.413Z,100904.79
2022-12-06T06:11:37.857Z,100911.19
2022-12-06T06:14:08.246Z,100907.52
2022-12-06T06:16:38.618Z,100907.90
2022-12-06T06:19:09.124Z,100904.71
2022-12-06T06:21:39.458Z,100908.69
2022-12-06T06:24:10.641Z,100907.16
2022-12-06T06:26:41.072Z,100909.16
2022-12-06T06:29:11.467Z,100907.35
2022-12-06T06:31:42.171Z,100905.91
2022-12-06T06:34:12.871Z,100911.23
2022-12-06T06:36:45.905Z,100910.02
2022-12-06T06:39:17.088Z,100910.41
2022-12-06T06:41:48.028Z,100905.32
2022-12-06T06:44:18.496Z,100908.39
2022-12-06T06:46:48.819Z,100911.20
2022-12-06T06:49:19.258Z,100912.13
2022-12-06T06:51:50.785Z,100907.25
2022-12-06T06:54:22.105Z,100909.15
2022-12-06T06:56:53.054Z,100908.45
2022-12-06T06:59:23.805Z,100910.98
2022-12-06T07:01:54.991Z,100913.61
2022-12-06T07:04:25.877Z,100910.05
2022-12-06T07:06:56.524Z,100914.76
2022-12-06T07:09:27.278Z,100918.28
2022-12-06T07:11:58.477Z,100914.41
2022-12-06T07:14:29.566Z,100917.68
2022-12-06T07:17:00.952Z,100917.52
2022-12-06T07:19:31.696Z,100924.48
2022-12-06T07:22:02.552Z,100928.89
2022-12-06T07:24:38.325Z,100930.67
2022-12-06T07:27:12.088Z,100930.89
2022-12-06T07:29:42.833Z,100932.37
2022-12-06T07:32:13.147Z,100932.85
2022-12-06T07:34:44.093Z,100934.24
2022-12-06T07:37:15.152Z,100933.04
2022-12-06T07:39:46.189Z,100932.27
2022-12-06T07:42:34.522Z,100935.11
2022-12-06T07:45:08.743Z,100933.52
2022-12-06T07:47:40.862Z,100939.13
2022-12-06T07:50:18.160Z,100942.37
2022-12-06T07:52:50.496Z,100935.69
2022-12-06T07:55:22.044Z,100933.11
2022-12-06T07:57:52.801Z,100931.72
2022-12-06T08:00:24.478Z,100929.09
2022-12-06T08:02:55.480Z,100931.70
2022-12-06T08:05:26.686Z,100936.87
2022-12-06T08:07:57.080Z,100935.97
2022-12-06T08:10:27.720Z,100939.75
2022-12-06T08:12:58.903Z,100941.02
2022-12-06T08:15:29.497Z,100942.58
2022-12-06T08:18:00.199Z,100940.63
2022-12-06T08:20:30.952Z,100945.57
2022-12-06T08:23:01.597Z,100944.20
2022-12-06T08:25:32.369Z,100947.48
2022-12-06T08:28:03.303Z,100946.17
2022-12-06T08:30:33.993Z,100948.42
2022-12-06T08:33:05.102Z,100950.89
2022-12-06T08:35:38.737Z,100952.96
2022-12-06T08:38:09.831Z,100950.41
2022-12-06T08:40:40.408Z,100953.58
2022-12-06T08:43:11.724Z,100954.01
2022-12-06T08:45:42.627Z,100952.34
2022-12-06T08:48:13.285Z,100951.39
2022-12-06T08:50:44.070Z,100951.55
2022-12-06T08:53:14.740Z,100953.38
2022-12-06T08:55:58.760Z,100955.87
2022-12-06T08:58:32.943Z,100952.99
2022-12-06T09:01:10.077Z,100956.86
2022-12-06T09:03:40.995Z,100955.73
2022-12-06T09:06:12.765Z,100955.41
2022-12-06T09:08:43.811Z,100957.84
2022-12-06T09:11:15.238Z,100957.04
2022-12-06T09:13:46.240Z,100951.67
2022-12-06T09:16:18.962Z,100953.86
2022-12-06T09:18:51.387Z,100952.31
2022-12-06T09:21:23.731Z,100958.15
2022-12-06T09:23:57.544Z,100960.61
2022-12-06T09:26:28.892Z,100957.61
2022-12-06T09:28:59.895Z,100961.48
2022-12-06T09:31:30.310Z,100958.95
2022-12-06T09:34:01.172Z,100957.48
2022-12-06T09:36:33.177Z,100958.30
2022-12-06T09:39:06.881Z,100956.24
2022-12-06T09:42:01.345Z,100952.98
2022-12-06T09:44:49.591Z,100955.69
2022-12-06T09:47:33.645Z,100952.19
2022-12-06T09:50:13.498Z,100951.92
2022-12-06T09:53:01.322Z,100952.58
2022-12-06T09:55:36.932Z,100952.90
2022-12-06T09:58:20.327Z,100955.60
2022-12-06T10:00:59.782Z,100955.04
2022-12-06T10:03:49.897Z,100955.19
2022-12-06T10:06:24.455Z,100954.55
2022-12-06T10:09:12.210Z,100952.70
2022-12-06T10:11:50.147Z,100946.95
2022-12-06T10:14:22.631Z,100950.23
2022-12-06T10:17:04.152Z,100947.36
2022-12-06T10:19:49.962Z,100945.83
2022-12-06T10:22:25.689Z,100943.40
2022-12-06T10:25:09.234Z,100942.66
2022-12-06T10:27:47.281Z,100941.45
2022-12-06T10:30:16.942Z,100939.91
2022-12-06T10:33:05.565Z,100940.12
2022-12-06T10:35:46.068Z,100943.52
2022-12-06T10:38:25.103Z,100941.84
2022-12-06T10:41:06.110Z,100943.52
2022-12-06T10:43:45.209Z,100937.94
2022-12-06T10:46:39.480Z,100933.33
2022-12-06T10:49:20.559Z,100934.92
2022-12-06T10:51:59.924Z,100933.05
2022-12-06T10:54:36.690Z,100935.74
2022-12-06T10:57:20.621Z,100933.36
2022-12-06T11:00:02.964Z,100930.67
2022-12-06T11:02:40.149Z,100929.48
2022-12-06T11:05:20.058Z,100928.93
2022-12-06T11:07:54.127Z,100927.48
2022-12-06T11:10:27.916Z,100926.02
2022-12-06T11:13:03.212Z,100927.81
2022-12-06T11:15:36.899Z,100928.66
2022-12-06T11:18:13.332Z,100922.02
2022-12-06T11:20:49.332Z,100929.55
2022-12-06T11:23:27.540Z,100921.08
2022-12-06T11:26:07.891Z,100924.16
2022-12-06T11:28:41.783Z,100922.66
2022-12-06T11:31:25.918Z,100918.39
2022-12-06T11:33:57.655Z,100914.08
2022-12-06T11:36:29.438Z,100913.25
2022-12-06T11:39:00.989Z,100914.17
2022-12-06T11:41:37.770Z,100912.23
2022-12-06T11:44:11.690Z,100908.61
2022-12-06T11:46:42.288Z,100909.95
2022-12-06T11:49:22.614Z,100910.34
2022-12-06T11:51:54.473Z,100909.08
2022-12-06T11:54:28.921Z,100905.06
2022-12-06T11:57:05.237Z,100903.98
2022-12-06T11:59:35.834Z,100901.46
2022-12-06T12:02:07.227Z,100895.21
2022-12-06T12:04:40.555Z,100892.58
2022-12-06T12:07:18.343Z,100889.63
2022-12-06T12:09:52.989Z,100894.27
2022-12-06T12:12:25.213Z,100893.44
2022-12-06T12:14:59.643Z,100890.09
2022-12-06T12:17:33.141Z,100896.14
2022-12-06T12:20:06.599Z,100888.64
2022-12-06T12:22:40.322Z,100891.70
2022-12-06T12:25:27.556Z,100890.75
2022-12-06T12:28:00.084Z,100888.56
2022-12-06T12:30:36.823Z,100890.20
2022-12-06T12:33:24.455Z,100891.89
2022-12-06T12:35:57.932Z,100887.81
2022-12-06T12:38:39.146Z,100883.25
2022-12-06T12:41:27.441Z,100884.55
2022-12-06T12:44:28.921Z,100883.08
2022-12-06T12:46:57.412Z,100881.00
2022-12-06T12:49:31.447Z,100879.17
2022-12-06T12:52:03.587Z,100879.81
2022-12-06T12:54:36.276Z,100876.72
2022-12-06T12:57:14.570Z,100878.41
2022-12-06T12:59:45.873Z,100878.48
2022-12-06T13:02:23.230Z,100875.63
2022-12-06T13:05:17.320Z,100876.85
2022-12-06T13:07:50.526Z,100874.99
2022-12-06T13:10:28.332Z,100871.17
2022-12-06T13:13:02.804Z,100871.75
2022-12-06T13:15:36.855Z,100865.45
2022-12-06T13:18:15.341Z,100864.73
2022-12-06T13:20:47.112Z,100863.91
2022-12-06T13:23:20.147Z,100863.20
2022-12-06T13:26:03.019Z,100865.05
2022-12-06T13:28:41.135Z,100864.82
2022-12-06T13:31:16.969Z,100863.65
2022-12-06T13:33:54.838Z,100860.81
2022-12-06T13:36:26.951Z,100862.06
2022-12-06T13:38:57.456Z,100863.31
2022-12-06T13:42:12.649Z,100865.14
2022-12-06T13:44:51.868Z,100860.58
2022-12-06T13:47:59.398Z,100865.48
2022-12-06T13:50:54.310Z,100865.34
2022-12-06T13:53:26.434Z,100864.05
2022-12-06T13:56:01.361Z,100862.66
2022-12-06T13:58:53.105Z,100867.23
2022-12-06T14:01:52.978Z,100867.13
2022-12-06T14:04:39.522Z,100869.53
2022-12-06T14:09:46.456Z,100871.89
2022-12-06T14:12:22.527Z,100875.03
2022-12-06T14:15:00.679Z,100869.23
2022-12-06T14:20:32.871Z,100874.91
2022-12-06T14:23:03.586Z,100876.34
2022-12-06T14:25:34.267Z,100873.71
2022-12-06T14:28:07.609Z,100875.02
2022-12-06T14:30:39.287Z,100868.06
2022-12-06T14:33:22.393Z,100869.85
2022-12-06T14:35:56.680Z,100872.66
2022-12-06T14:38:30.446Z,100873.63
2022-12-06T14:41:18.332Z,100872.81
2022-12-06T14:43:48.782Z,100872.58
2022-12-06T14:46:21.755Z,100871.41
2022-12-06T14:49:10.072Z,100876.35
2022-12-06T14:51:41.906Z,100877.63
2022-12-06T14:54:35.157Z,100876.85
2022-12-06T14:57:19.388Z,100878.96
2022-12-06T15:00:15.145Z,100884.40
2022-12-06T15:03:16.355Z,100881.65
2022-12-06T15:05:50.131Z,100878.67
2022-12-06T15:08:35.357Z,100882.69
2022-12-06T15:11:07.629Z,100879.80
2022-12-06T15:13:38.243Z,100882.66
2022-12-06T15:16:25.317Z,100878.24
2022-12-06T15:19:01.305Z,100880.55
2022-12-06T15:21:31.810Z,100878.11
2022-12-06T15:24:02.215Z,100882.13
2022-12-06T15:26:32.663Z,100883.25
2022-12-06T15:29:03.051Z,100879.83
2022-12-06T15:31:35.064Z,100880.69
2022-12-06T15:34:25.279Z,100878.95
2022-12-06T15:37:22.333Z,100881.64
2022-12-06T15:39:48.480Z,100886.27
2022-12-06T15:42:22.145Z,100883.44
2022-12-06T15:44:52.968Z,100884.30
2022-12-06T15:47:23.339Z,100884.16
2022-12-06T15:49:54.377Z,100883.75
2022-12-06T15:52:24.884Z,100887.41
2022-12-06T15:54:55.340Z,100886.64
2022-12-06T15:57:26.077Z,100885.33
2022-12-06T15:59:58.277Z,100883.75
2022-12-06T16:02:28.706Z,100883.54
2022-12-06T16:04:59.914Z,100881.10
2022-12-06T16:07:31.217Z,100881.10
2022-12-06T16:10:01.921Z,100880.97
2022-12-06T16:12:52.374Z,100888.39
2022-12-06T16:15:23.694Z,100886.57
2022-12-06T16:17:54.762Z,100882.44
2022-12-06T16:20:35.082Z,100877.36
2022-12-06T16:23:43.085Z,100875.23
2022-12-06T16:26:19.439Z,100879.70
2022-12-06T16:28:50.276Z,100877.88
2022-12-06T16:31:21.135Z,100879.16
2022-12-06T16:33:52.206Z,100880.30
2022-12-06T16:36:25.271Z,100874.48
2022-12-06T16:38:57.662Z,100877.23
2022-12-06T16:41:29.975Z,100872.44
2022-12-06T16:44:01.509Z,100877.11
2022-12-06T16:46:33.719Z,100881.54
2022-12-06T16:49:43.750Z,100872.14
2022-12-06T16:51:57.239Z,100874.59
2022-12-06T16:54:27.614Z,100871.69
2022-12-06T16:56:58.513Z,100871.75
2022-12-06T16:59:28.875Z,100870.31
2022-12-06T17:02:00.637Z,100864.70
2022-12-06T17:04:31.546Z,100865.41
2022-12-06T17:07:02.285Z,100864.88
2022-12-06T17:09:32.939Z,100864.93
2022-12-06T17:12:06.207Z,100861.88
2022-12-06T17:14:37.912Z,100862.66
2022-12-06T17:17:13.296Z,100862.77
2022-12-06T17:19:44.285Z,100858.04
2022-12-06T17:22:17.346Z,100860.30
2022-12-06T17:24:48.201Z,100861.86
2022-12-06T17:27:19.192Z,100864.20
2022-12-06T17:29:49.561Z,100867.27
2022-12-06T17:32:20.525Z,100869.07
2022-12-06T17:34:50.977Z,100867.08
2022-12-06T17:37:21.772Z,100866.02
2022-12-06T17:39:52.466Z,100863.00
2022-12-06T17:42:40.704Z,100864.73
2022-12-06T17:45:12.672Z,100869.17
2022-12-06T17:47:43.012Z,100872.20
2022-12-06T17:50:14.282Z,100870.77
2022-12-06T17:52:44.713Z,100869.24
2022-12-06T17:55:16.840Z,100863.11
2022-12-06T17:57:47.280Z,100869.80
2022-12-06T18:00:22.577Z,100873.70
2022-12-06T18:02:53.280Z,100871.81
2022-12-06T18:05:23.915Z,100870.30
2022-12-06T18:07:54.700Z,100868.20
2022-12-06T18:10:25.841Z,100869.72
2022-12-06T18:13:01.201Z,100875.23
2022-12-06T18:15:39.105Z,100873.10
2022-12-06T18:18:09.646Z,100872.02
2022-12-06T18:20:43.013Z,100875.73
2022-12-06T18:23:13.906Z,100873.29
2022-12-06T18:25:44.543Z,100874.99
2022-12-06T18:28:15.178Z,100875.34
2022-12-06T18:30:45.844Z,100874.75
2022-12-06T18:33:20.946Z,100873.63
2022-12-06T18:35:54.654Z,100872.38
2022-12-06T18:38:25.631Z,100873.20
2022-12-06T18:41:04.659Z,100874.96
2022-12-06T18:43:35.730Z,100877.27
2022-12-06T18:46:08.710Z,100876.01
2022-12-06T18:48:42.616Z,100878.14
2022-12-06T18:51:15.601Z,100879.38
2022-12-06T18:53:46.417Z,100879.92
2022-12-06T18:56:18.589Z,100873.55
2022-12-06T18:58:50.219Z,100873.51
2022-12-06T19:01:23.303Z,100873.45
2022-12-06T19:03:55.672Z,100870.95
2022-12-06T19:06:28.375Z,100871.83
2022-12-06T19:09:01.681Z,100870.73
2022-12-06T19:11:32.751Z,100871.61
2022-12-06T19:14:03.278Z,100869.56
2022-12-06T19:16:38.240Z,100868.50
2022-12-06T19:19:15.801Z,100870.67
2022-12-06T19:21:48.052Z,100865.63
2022-12-06T19:24:21.566Z,100868.48
2022-12-06T19:26:53.342Z,100870.70
2022-12-06T19:29:24.195Z,100869.62
2022-12-06T19:31:54.773Z,100864.59
2022-12-06T19:34:27.006Z,100866.07
2022-12-06T19:36:58.231Z,100861.23
2022-12-06T19:39:29.256Z,100858.46
2022-12-06T19:42:18.051Z,100859.20
2022-12-06T19:44:48.841Z,100859.30
2022-12-06T19:47:19.337Z,100864.08
2022-12-06T19:49:50.090Z,100863.20
2022-12-06T19:52:20.826Z,100861.79
2022-12-06T19:54:51.325Z,100859.28
2022-12-06T19:57:22.066Z,100858.75
2022-12-06T19:59:55.160Z,100856.84
2022-12-06T20:02:25.979Z,100853.11
2022-12-06T20:04:57.099Z,100856.33
2022-12-06T20:07:27.913Z,100852.88
2022-12-06T20:09:58.779Z,100849.41
2022-12-06T20:12:29.300Z,100846.39
2022-12-06T20:14:59.736Z,100843.91
2022-12-06T20:17:30.490Z,100842.84
2022-12-06T20:20:02.152Z,100844.10
2022-12-06T20:22:33.234Z,100844.48
2022-12-06T20:25:04.604Z,100845.27
2022-12-06T20:27:54.393Z,100839.46
2022-12-06T20:30:25.744Z,100837.67
2022-12-06T20:32:56.802Z,100838.98
2022-12-06T20:35:27.752Z,100834.95
2022-12-06T20:37:58.549Z,100836.87
2022-12-06T20:40:31.636Z,100840.58
2022-12-06T20:43:03.110Z,100838.35
2022-12-06T20:45:33.820Z,100829.91
2022-12-06T20:48:05.054Z,100827.59
2022-12-06T20:50:35.769Z,100823.62
2022-12-06T20:53:07.224Z,100817.52
2022-12-06T20:55:38.430Z,100814.14
2022-12-06T20:58:08.864Z,100812.55
2022-12-06T21:00:42.867Z,100809.86
2022-12-06T21:03:13.332Z,100808.81
2022-12-06T21:05:45.383Z,100813.66
2022-12-06T21:08:16.752Z,100811.98
2022-12-06T21:11:20.696Z,100809.05
2022-12-06T21:13:38.951Z,100803.14
2022-12-06T21:16:13.635Z,100797.91
2022-12-06T21:18:46.201Z,100793.05
2022-12-06T21:21:25.497Z,100790.43
2022-12-06T21:23:56.289Z,100787.15
2022-12-06T21:26:27.206Z,100784.27
2022-12-06T21:28:58.551Z,100784.61
2022-12-06T21:31:30.900Z,100778.90
2022-12-06T21:34:02.177Z,100779.37
2022-12-06T21:36:33.105Z,100776.88
2022-12-06T21:39:03.841Z,100773.29
2022-12-06T21:41:35.044Z,100780.73
2022-12-06T21:44:06.711Z,100778.27
2022-12-06T21:46:37.558Z,100771.98
2022-12-06T21:49:10.739Z,100772.52
2022-12-06T21:51:41.876Z,100769.52
2022-12-06T21:54:16.546Z,100762.40
2022-12-06T21:56:48.661Z,100760.96
2022-12-06T21:59:19.431Z,100752.45
2022-12-06T22:01:52.187Z,100755.59
2022-12-06T22:04:26.078Z,100761.11
2022-12-06T22:06:56.451Z,100760.77
2022-12-06T22:09:26.990Z,100757.52
2022-12-06T22:11:59.077Z,100760.02
2022-12-06T22:14:29.945Z,100761.25
2022-12-06T22:17:00.643Z,100754.20
2022-12-06T22:19:32.944Z,100753.33
2022-12-06T22:22:05.779Z,100754.52
2022-12-06T22:24:36.718Z,100749.14
2022-12-06T22:27:07.928Z,100751.52
2022-12-06T22:29:38.361Z,100747.77
2022-12-06T22:32:09.060Z,100741.09
2022-12-06T22:34:39.529Z,100743.67
2022-12-06T22:37:10.655Z,100747.86
2022-12-06T22:39:41.044Z,100743.41
2022-12-06T22:42:11.782Z,100742.14
2022-12-06T22:44:42.509Z,100736.20
2022-12-06T22:47:13.303Z,100729.37
2022-12-06T22:49:43.822Z,100725.05
2022-12-06T22:52:15.594Z,100727.42
2022-12-06T22:54:52.078Z,100723.94
2022-12-06T22:57:22.553Z,100727.37
2022-12-06T22:59:53.681Z,100727.17
2022-12-06T23:02:24.650Z,100726.38
2022-12-06T23:04:55.606Z,100724.44
2022-12-06T23:07:27.810Z,100719.56
2022-12-06T23:09:59.671Z,100721.36
2022-12-06T23:12:30.714Z,100717.52
2022-12-06T23:15:01.278Z,100707.23
2022-12-06T23:17:32.436Z,100703.23
2022-12-06T23:20:05.732Z,100702.94
2022-12-06T23:22:36.370Z,100699.15
2022-12-06T23:25:10.282Z,100690.27
2022-12-06T23:27:40.978Z,100681.89
2022-12-06T23:30:13.657Z,100684.09
2022-12-06T23:32:44.357Z,100687.29
2022-12-06T23:35:15.353Z,100684.94
2022-12-06T23:37:46.414Z,100680.39
2022-12-06T23:40:17.537Z,100679.69
2022-12-06T23:42:50.932Z,100672.72
2022-12-06T23:45:25.179Z,100675.60
2022-12-06T23:47:56.187Z,100667.52
2022-12-06T23:50:26.910Z,100665.59
2022-12-06T23:52:57.894Z,100656.23
2022-12-06T23:55:28.272Z,100652.05
2022-12-06T23:57:58.651Z,100648.10
